Time;durP1;ratioP1;P1;durP2;ratioP2;P2;SDS_P1;SDS_P2;PMS_P1;PMS_P2;Temp;Humidity;BMP_temperature;BMP_pressure;BME280_temperature;BME280_humidity;BME280_pressure;Samples;Min_cycle;Max_cycle;Signal;HPM_P1;HPM_P2
2022/09/24 00:01:39;;;;;;;9.10;5.93;;;;;;;11.74;74.62;97927.47;4941273;28;20975;-89
2022/09/24 00:04:13;;;;;;;6.63;5.40;;;;;;;11.65;73.61;97930.56;4973347;28;20046;-89
2022/09/24 00:06:46;;;;;;;6.10;5.50;;;;;;;11.63;73.78;97925.50;4971438;28;20138;-88
2022/09/24 00:09:18;;;;;;;7.97;5.53;;;;;;;11.59;74.17;97926.16;4951227;28;20090;-89
2022/09/24 00:11:44;;;;;;;7.63;5.35;;;;;;;11.62;74.08;97929.16;4973878;28;20070;-88
2022/09/24 00:14:12;;;;;;;6.20;5.63;;;;;;;11.57;73.82;97915.03;4971151;28;20050;-91
2022/09/24 00:16:40;;;;;;;6.70;6.00;;;;;;;11.62;74.04;97928.34;4973081;28;20049;-92
2022/09/24 00:19:07;;;;;;;5.80;5.30;;;;;;;11.55;74.12;97914.44;4971872;28;20051;-91
2022/09/24 00:21:36;;;;;;;6.18;5.57;;;;;;;11.63;74.43;97917.63;4972047;28;20102;-92
2022/09/24 00:27:05;;;;;;;9.43;5.50;;;;;;;11.56;74.19;97916.84;4971820;28;20490;-91
2022/09/24 00:29:34;;;;;;;7.18;5.78;;;;;;;11.50;73.72;97913.25;4972336;28;20073;-91
2022/09/24 00:32:03;;;;;;;7.80;5.85;;;;;;;11.52;74.69;97910.44;4966009;28;20065;-93
2022/09/24 00:34:30;;;;;;;5.93;5.00;;;;;;;11.50;75.38;97908.00;4973150;28;20069;-92
2022/09/24 00:36:58;;;;;;;7.00;5.38;;;;;;;11.39;74.38;97892.09;4968412;28;20043;-92
2022/09/24 00:39:26;;;;;;;6.05;5.22;;;;;;;11.46;75.02;97904.19;4969552;28;20051;-91
2022/09/24 00:41:53;;;;;;;6.55;5.30;;;;;;;11.46;74.57;97904.19;4968737;28;20050;-91
2022/09/24 00:44:44;;;;;;;6.72;5.57;;;;;;;11.56;75.19;97908.97;4972981;28;20833;-92
2022/09/24 00:47:27;;;;;;;6.43;5.18;;;;;;;11.47;75.58;97894.50;4952149;28;20411;-91
2022/09/24 00:50:14;;;;;;;5.97;5.28;;;;;;;11.60;75.30;97897.03;4968684;28;20039;-91
2022/09/24 00:53:09;;;;;;;6.93;6.22;;;;;;;11.55;74.40;97893.44;4970458;28;20070;-92
2022/09/24 00:55:39;;;;;;;5.60;5.05;;;;;;;11.50;75.33;97892.22;4971810;28;21533;-92
2022/09/24 00:58:08;;;;;;;8.10;5.43;;;;;;;11.56;75.25;97900.28;4954995;28;20163;-92
2022/09/24 01:00:38;;;;;;;7.32;5.15;;;;;;;11.51;74.43;97901.75;4971753;28;20045;-92
2022/09/24 01:03:14;;;;;;;7.10;5.68;;;;;;;11.51;74.64;97893.03;4958364;28;20517;-92
2022/09/24 01:05:41;;;;;;;6.13;5.35;;;;;;;11.45;74.30;97888.63;4971775;28;20125;-92
2022/09/24 01:08:17;;;;;;;5.70;5.13;;;;;;;11.50;74.94;97886.97;4976360;28;20078;-91
2022/09/24 01:11:00;;;;;;;6.75;5.68;;;;;;;11.55;75.05;97890.81;4965963;28;20089;-90
2022/09/24 01:14:08;;;;;;;6.07;5.18;;;;;;;11.51;74.88;97886.00;4976504;28;20565;-91
2022/09/24 01:17:01;;;;;;;5.95;5.35;;;;;;;11.52;75.04;97877.09;4975916;28;20498;-92
2022/09/24 01:19:36;;;;;;;5.90;5.15;;;;;;;11.63;75.00;97890.53;4959575;28;20050;-90
2022/09/24 01:22:29;;;;;;;7.95;5.45;;;;;;;11.50;74.75;97881.72;4975647;28;20134;-92
2022/09/24 01:25:23;;;;;;;6.20;5.60;;;;;;;11.51;75.07;97888.63;4973873;28;20058;-93
2022/09/24 01:28:12;;;;;;;6.35;5.75;;;;;;;11.53;75.36;97881.31;4975025;28;20046;-90
2022/09/24 01:30:41;;;;;;;5.88;5.10;;;;;;;11.42;75.39;97863.59;4975124;28;20035;-91
2022/09/24 01:33:16;;;;;;;7.10;5.63;;;;;;;11.57;75.83;97878.25;4974866;28;20074;-91
2022/09/24 01:35:50;;;;;;;6.40;5.28;;;;;;;11.55;75.43;97864.53;4965506;28;20121;-91
2022/09/24 01:38:24;;;;;;;6.32;4.82;;;;;;;11.54;74.77;97869.00;4959593;28;20483;-90
2022/09/24 01:40:56;;;;;;;5.82;5.22;;;;;;;11.32;74.10;97844.84;4973953;28;20043;-89
2022/09/24 01:43:28;;;;;;;8.63;5.55;;;;;;;11.37;75.02;97845.03;4967791;28;20058;-91
2022/09/24 01:46:01;;;;;;;5.93;5.00;;;;;;;11.36;75.41;97848.69;4971071;28;20050;-92
2022/09/24 01:48:29;;;;;;;6.70;5.22;;;;;;;11.31;75.22;97838.00;4970904;28;20051;-92
2022/09/24 01:51:31;;;;;;;6.18;5.55;;;;;;;11.30;76.11;97844.28;4976136;28;20480;-91
2022/09/24 01:54:15;;;;;;;8.32;5.68;;;;;;;11.33;76.77;97833.34;4955207;28;20043;-90
2022/09/24 01:57:00;;;;;;;7.05;5.57;;;;;;;11.43;76.55;97827.63;4959056;28;20073;-91
2022/09/24 01:59:54;;;;;;;6.90;5.60;;;;;;;11.38;76.29;97817.75;4949896;28;20141;-91
2022/09/24 02:02:35;;;;;;;7.03;5.43;;;;;;;11.34;76.32;97806.09;4966062;28;20054;-92
2022/09/24 02:05:16;;;;;;;6.05;5.15;;;;;;;11.32;75.77;97804.69;4958710;28;20455;-92
2022/09/24 02:08:13;;;;;;;6.60;5.70;;;;;;;11.41;76.04;97812.09;4975601;28;20517;-91
2022/09/24 02:10:50;;;;;;;7.57;5.95;;;;;;;11.25;76.03;97784.50;4976422;28;20042;-92
2022/09/24 02:13:25;;;;;;;7.85;5.88;;;;;;;11.42;76.27;97810.28;4976258;28;20054;-91
2022/09/24 02:16:01;;;;;;;6.43;5.68;;;;;;;11.30;76.42;97798.84;4974314;28;20603;-90
2022/09/24 02:18:36;;;;;;;7.85;5.57;;;;;;;11.31;76.46;97803.06;4974822;28;20130;-89
2022/09/24 02:21:12;;;;;;;7.35;5.75;;;;;;;11.34;76.71;97803.47;4972660;28;20035;-90
2022/09/24 02:23:46;;;;;;;6.25;5.03;;;;;;;11.40;76.06;97802.63;4960966;28;20364;-89
2022/09/24 02:26:13;;;;;;;6.20;5.60;;;;;;;11.32;76.11;97783.66;4957398;28;20053;-89
2022/09/24 02:28:40;;;;;;;7.45;6.20;;;;;;;11.34;75.75;97787.72;4975406;28;20066;-89
2022/09/24 02:31:15;;;;;;;9.15;5.55;;;;;;;11.25;76.29;97784.50;4975756;28;20085;-90
2022/09/24 02:36:33;;;;;;;;;;;;;;;11.27;76.81;97792.16;4973247;28;20109;-90
2022/09/24 02:39:01;;;;;;;6.57;5.53;;;;;;;11.25;76.19;97795.03;4972363;28;19922;-89
2022/09/24 02:41:30;;;;;;;6.40;5.80;;;;;;;11.22;76.71;97784.16;4974371;28;20126;-89
2022/09/24 02:43:57;;;;;;;8.35;5.93;;;;;;;11.23;75.78;97788.38;4975173;28;20094;-89
2022/09/24 02:46:24;;;;;;;5.80;5.20;;;;;;;11.17;75.94;97776.09;4973890;28;20471;-89
2022/09/24 02:48:51;;;;;;;5.90;5.30;;;;;;;11.29;76.66;97789.34;4974462;28;20525;-89
2022/09/24 02:51:18;;;;;;;8.23;5.55;;;;;;;11.28;77.13;97787.75;4974780;28;20038;-90
2022/09/24 02:53:44;;;;;;;9.73;6.47;;;;;;;11.28;77.17;97788.56;4974922;28;20053;-89
2022/09/24 02:56:11;;;;;;;6.20;5.38;;;;;;;11.24;77.22;97776.84;4972629;28;20129;-89
2022/09/24 02:58:38;;;;;;;7.22;5.40;;;;;;;11.24;77.05;97769.00;4972449;28;20054;-89
2022/09/24 03:01:05;;;;;;;6.30;5.68;;;;;;;11.35;76.13;97789.31;4974239;28;20113;-90
2022/09/24 03:03:32;;;;;;;5.82;5.30;;;;;;;11.38;76.60;97794.13;4974205;28;20051;-89
2022/09/24 03:05:59;;;;;;;6.97;4.90;;;;;;;11.40;76.85;97802.63;4974286;28;20074;-91
2022/09/24 03:08:26;;;;;;;6.35;5.30;;;;;;;11.42;76.70;97789.28;4973082;28;20058;-90
2022/09/24 03:10:54;;;;;;;6.45;5.53;;;;;;;11.40;76.75;97786.88;4956499;29;20046;-89
2022/09/24 03:13:21;;;;;;;6.15;5.28;;;;;;;11.46;76.99;97791.28;4973438;28;20043;-89
2022/09/24 03:15:48;;;;;;;6.65;5.20;;;;;;;11.43;77.01;97791.69;4973815;28;20061;-89
2022/09/24 03:18:15;;;;;;;6.00;5.43;;;;;;;11.39;76.48;97768.66;4976644;28;20038;-88
2022/09/24 03:20:41;;;;;;;6.13;5.10;;;;;;;11.41;76.08;97785.84;4974707;28;20070;-90
2022/09/24 03:23:08;;;;;;;5.43;4.93;;;;;;;11.27;75.81;97765.91;4976500;28;20041;-89
2022/09/24 03:25:35;;;;;;;6.60;4.85;;;;;;;11.28;75.98;97762.31;4974656;28;20074;-88
2022/09/24 03:28:01;;;;;;;6.25;5.35;;;;;;;11.16;75.68;97769.25;4974028;28;20082;-90
2022/09/24 03:33:13;;;;;;;6.75;5.35;;;;;;;11.22;76.29;97778.91;4974098;28;20062;-89
2022/09/24 03:35:41;;;;;;;5.53;4.65;;;;;;;11.22;76.81;97768.41;4973751;28;20039;-88
2022/09/24 03:38:08;;;;;;;7.32;5.40;;;;;;;11.08;75.79;97748.47;4974310;28;20058;-89
2022/09/24 03:40:35;;;;;;;5.45;4.95;;;;;;;11.15;76.75;97759.75;4975180;28;20597;-89
2022/09/24 03:43:02;;;;;;;7.10;5.28;;;;;;;11.16;76.54;97759.56;4973976;28;20074;-90
2022/09/24 03:45:29;;;;;;;7.30;5.40;;;;;;;11.03;76.53;97745.69;4973938;28;20450;-89
2022/09/24 03:47:55;;;;;;;5.70;5.10;;;;;;;11.11;76.95;97771.69;4970150;28;20038;-88
2022/09/24 03:50:23;;;;;;;5.45;4.93;;;;;;;11.10;76.09;97780.59;4975686;28;20067;-89
2022/09/24 03:52:50;;;;;;;5.43;4.93;;;;;;;11.05;76.78;97777.78;4974036;28;20070;-89
2022/09/24 03:55:16;;;;;;;6.65;5.30;;;;;;;11.09;76.87;97768.44;4975121;28;20046;-89
2022/09/24 03:57:43;;;;;;;5.45;4.90;;;;;;;11.09;77.17;97769.25;4956469;28;20054;-88
2022/09/24 04:00:10;;;;;;;5.50;5.00;;;;;;;11.07;77.07;97763.41;4973290;28;20043;-88
2022/09/24 04:02:39;;;;;;;5.40;4.90;;;;;;;11.18;76.84;97782.97;4971780;28;20082;-89
2022/09/24 04:05:08;;;;;;;5.97;5.28;;;;;;;11.14;77.20;97771.25;4973159;28;20102;-89
2022/09/24 04:07:35;;;;;;;7.70;5.20;;;;;;;11.04;76.32;97771.72;4974145;28;20062;-89
2022/09/24 04:10:02;;;;;;;9.05;5.20;;;;;;;11.13;77.12;97774.91;4974313;28;20043;-89
2022/09/24 04:12:30;;;;;;;5.95;4.90;;;;;;;11.05;77.39;97772.53;4974112;28;20042;-89
2022/09/24 04:14:56;;;;;;;5.93;5.18;;;;;;;11.06;77.33;97761.81;4972987;28;20494;-88
2022/09/24 04:17:23;;;;;;;7.03;5.40;;;;;;;11.16;77.08;97771.88;4960494;28;20042;-90
2022/09/24 04:19:50;;;;;;;6.05;5.20;;;;;;;11.14;77.05;97766.81;4957506;28;20161;-91
2022/09/24 04:22:16;;;;;;;6.68;5.63;;;;;;;11.23;76.95;97776.06;4974779;28;20168;-92
2022/09/24 04:24:44;;;;;;;6.20;5.45;;;;;;;11.15;77.28;97768.41;4971964;28;20897;-90
2022/09/24 04:27:10;;;;;;;6.82;5.43;;;;;;;11.16;76.67;97764.00;4974036;28;20089;-89
2022/09/24 04:29:37;;;;;;;6.20;5.60;;;;;;;11.19;76.65;97769.63;4971649;28;20047;-89
2022/09/24 04:32:03;;;;;;;5.78;4.90;;;;;;;11.29;76.76;97779.66;4970790;28;20074;-90
2022/09/24 04:34:32;;;;;;;6.47;5.32;;;;;;;11.20;76.85;97759.91;4971728;28;20167;-89
2022/09/24 04:36:58;;;;;;;6.35;5.50;;;;;;;11.19;76.57;97753.84;4972721;28;20053;-89
2022/09/24 04:39:26;;;;;;;6.15;5.18;;;;;;;11.16;76.32;97761.38;4971975;28;20047;-89
2022/09/24 04:41:53;;;;;;;5.78;5.18;;;;;;;11.06;76.68;97742.66;4954304;28;20541;-91
2022/09/24 04:44:20;;;;;;;6.47;5.45;;;;;;;11.11;76.62;97743.63;4971610;28;20077;-90
2022/09/24 04:46:46;;;;;;;5.70;5.20;;;;;;;11.23;76.49;97759.50;4975625;28;20441;-91
2022/09/24 04:49:13;;;;;;;6.63;5.30;;;;;;;11.21;76.46;97751.81;4969982;28;20042;-91
2022/09/24 04:51:40;;;;;;;6.32;5.22;;;;;;;11.09;75.88;97753.50;4970281;28;20031;-91
2022/09/24 04:54:08;;;;;;;6.18;5.55;;;;;;;11.05;76.36;97754.16;4972282;28;20078;-91
2022/09/24 04:56:35;;;;;;;11.57;5.72;;;;;;;11.04;76.68;97739.44;4956864;28;20479;-90
2022/09/24 04:59:01;;;;;;;6.47;5.30;;;;;;;11.15;77.00;97741.38;4973033;28;20409;-91
2022/09/24 05:01:29;;;;;;;5.78;5.15;;;;;;;11.15;76.81;97738.75;4971576;28;20129;-90
2022/09/24 05:03:56;;;;;;;6.43;5.47;;;;;;;11.08;76.65;97743.22;4970233;28;20047;-91
2022/09/24 05:06:22;;;;;;;6.60;5.65;;;;;;;11.04;76.92;97749.94;4955171;28;20054;-91
2022/09/24 05:08:49;;;;;;;8.50;5.70;;;;;;;11.03;76.83;97756.19;4972273;28;20043;-90
2022/09/24 05:11:18;;;;;;;6.10;5.50;;;;;;;10.91;76.92;97735.84;4971501;28;20483;-90
2022/09/24 05:13:44;;;;;;;6.18;5.57;;;;;;;10.93;76.29;97757.44;4972495;28;20062;-90
2022/09/24 05:16:11;;;;;;;7.20;5.43;;;;;;;10.70;76.52;97744.84;4972540;28;20550;-90
2022/09/24 05:18:38;;;;;;;6.63;5.93;;;;;;;10.51;77.67;97747.56;4972717;28;20039;-89
2022/09/24 05:21:05;;;;;;;6.28;5.68;;;;;;;10.40;78.05;97741.94;4973120;28;20070;-90
2022/09/24 05:23:31;;;;;;;6.97;5.93;;;;;;;10.43;78.70;97743.31;4971431;28;20478;-89
2022/09/24 05:28:43;;;;;;;7.03;5.65;;;;;;;10.13;79.52;97761.31;4965678;28;20130;-89
2022/09/24 05:31:10;;;;;;;6.20;5.38;;;;;;;10.20;79.93;97754.25;4971222;28;20043;-89
2022/09/24 05:33:37;;;;;;;6.50;5.43;;;;;;;10.40;79.56;97762.91;4971188;28;20042;-90
2022/09/24 05:36:04;;;;;;;8.25;5.55;;;;;;;10.62;79.49;97767.88;4969174;28;20125;-90
2022/09/24 05:38:31;;;;;;;9.32;5.88;;;;;;;10.62;78.86;97752.16;4972970;28;20541;-90
2022/09/24 05:40:58;;;;;;;6.53;5.93;;;;;;;10.81;79.16;97766.19;4972568;28;20468;-90
2022/09/24 05:43:27;;;;;;;6.82;5.65;;;;;;;10.88;79.23;97777.47;4971562;28;20042;-90
2022/09/24 05:45:55;;;;;;;7.28;5.80;;;;;;;10.94;78.86;97777.41;4973368;28;20102;-89
2022/09/24 05:48:22;;;;;;;6.07;5.45;;;;;;;10.94;78.73;97756.44;4970303;28;20145;-90
2022/09/24 05:50:54;;;;;;;6.10;5.50;;;;;;;11.03;78.70;97758.81;4956077;28;20142;-89
2022/09/24 05:53:22;;;;;;;6.30;5.65;;;;;;;11.15;78.29;97772.84;4969905;28;20102;-89
2022/09/24 05:55:48;;;;;;;6.45;5.82;;;;;;;11.12;78.36;97762.78;4976895;28;20106;-89
2022/09/24 05:58:15;;;;;;;6.30;5.38;;;;;;;11.15;77.87;97755.28;4959231;28;20142;-89
2022/09/24 06:00:44;;;;;;;6.20;5.60;;;;;;;11.24;77.93;97763.72;4974550;28;20042;-89
2022/09/24 06:03:14;;;;;;;11.10;6.30;;;;;;;11.13;78.41;97743.41;4975224;28;20038;-90
2022/09/24 06:05:50;;;;;;;6.80;6.10;;;;;;;11.19;78.56;97763.56;4975908;28;20165;-90
2022/09/24 06:08:19;;;;;;;8.52;5.88;;;;;;;11.25;78.27;97758.25;4974615;28;20086;-89
2022/09/24 06:10:46;;;;;;;7.25;6.00;;;;;;;11.22;77.95;97760.53;4975654;28;20051;-89
2022/09/24 06:13:18;;;;;;;6.18;5.50;;;;;;;11.11;77.35;97750.69;4976011;28;20125;-89
2022/09/24 06:15:45;;;;;;;6.22;5.22;;;;;;;11.05;78.07;97751.53;4975698;28;20043;-88
2022/09/24 06:18:12;;;;;;;6.65;5.95;;;;;;;11.06;78.90;97745.28;4976025;28;20070;-89
2022/09/24 06:20:39;;;;;;;6.00;5.40;;;;;;;11.06;78.19;97753.16;4979523;28;20074;-90
2022/09/24 06:23:06;;;;;;;6.53;5.78;;;;;;;10.89;78.16;97742.31;4972828;28;20043;-89
2022/09/24 06:25:33;;;;;;;7.18;5.70;;;;;;;10.82;78.38;97745.00;4975658;28;20476;-89
2022/09/24 06:28:03;;;;;;;7.05;5.30;;;;;;;10.83;78.39;97746.59;4975921;28;20122;-89
2022/09/24 06:30:34;;;;;;;6.88;5.70;;;;;;;10.97;78.97;97761.28;4955868;28;20388;-89
2022/09/24 06:33:08;;;;;;;6.70;5.60;;;;;;;10.98;79.10;97765.50;4975661;28;20078;-90
2022/09/24 06:35:41;;;;;;;7.78;5.80;;;;;;;10.96;79.14;97759.63;4959857;28;20516;-90
2022/09/24 06:38:12;;;;;;;7.13;5.82;;;;;;;11.08;78.30;97754.53;4959165;28;20038;-90
2022/09/24 06:40:40;;;;;;;7.35;6.07;;;;;;;10.99;78.17;97750.56;4971090;28;20070;-91
2022/09/24 06:43:11;;;;;;;6.65;5.88;;;;;;;11.03;78.58;97783.22;4970218;28;20047;-89
2022/09/24 06:45:39;;;;;;;8.93;6.50;;;;;;;10.93;79.33;97775.00;4966658;28;20035;-89
2022/09/24 06:48:06;;;;;;;6.72;5.80;;;;;;;10.92;78.30;97776.84;4972403;28;20050;-89
2022/09/24 06:50:49;;;;;;;6.15;5.55;;;;;;;10.97;78.31;97792.75;4962667;28;20046;-89
2022/09/24 06:53:15;;;;;;;6.97;5.57;;;;;;;11.06;77.88;97784.63;4974496;28;20417;-90
2022/09/24 06:55:42;;;;;;;7.00;6.22;;;;;;;11.23;77.91;97781.31;4975008;28;20041;-92
2022/09/24 06:58:15;;;;;;;7.85;5.82;;;;;;;11.49;78.56;97782.94;4974771;28;20043;-91
2022/09/24 07:01:00;;;;;;;8.18;6.70;;;;;;;11.71;76.65;97793.13;4972536;28;20038;-92
2022/09/24 07:03:32;;;;;;;7.55;6.57;;;;;;;12.06;76.76;97790.84;4973025;28;20046;-89
2022/09/24 07:06:03;;;;;;;8.27;6.80;;;;;;;12.27;75.75;97789.59;4972573;28;20495;-90
2022/09/24 07:08:30;;;;;;;10.55;7.70;;;;;;;12.55;75.83;97799.66;4972875;28;20073;-90
2022/09/24 07:10:59;;;;;;;9.70;7.10;;;;;;;12.83;73.16;97783.31;4972810;28;20043;-90
2022/09/24 07:13:26;;;;;;;8.35;7.03;;;;;;;13.18;71.83;97777.41;4971352;28;20133;-91
2022/09/24 07:15:55;;;;;;;10.48;6.85;;;;;;;13.47;69.44;97779.25;4971271;28;20055;-90
2022/09/24 07:18:22;;;;;;;9.95;6.97;;;;;;;13.44;69.27;97757.84;4973774;28;20530;-90
2022/09/24 07:20:56;;;;;;;7.30;6.55;;;;;;;13.53;70.33;97770.44;4975035;28;20034;-90
2022/09/24 07:23:23;;;;;;;8.05;6.40;;;;;;;13.60;71.04;97792.22;4972171;28;20438;-91
2022/09/24 07:25:56;;;;;;;8.15;6.85;;;;;;;13.71;71.72;97788.00;4975815;28;20034;-91
2022/09/24 07:28:24;;;;;;;8.32;6.70;;;;;;;13.77;70.88;97783.66;4975328;28;20042;-92
2022/09/24 07:30:58;;;;;;;10.75;7.40;;;;;;;13.91;71.09;97790.31;4975312;28;20726;-91
2022/09/24 07:33:26;;;;;;;17.88;11.75;;;;;;;13.86;67.67;97790.22;4975141;28;20071;-91
2022/09/24 07:35:52;;;;;;;9.52;8.10;;;;;;;13.89;72.19;97787.09;4968512;28;20047;-91
2022/09/24 07:38:19;;;;;;;10.40;7.47;;;;;;;13.73;67.29;97806.22;4975485;28;20050;-91
2022/09/24 07:40:46;;;;;;;8.18;7.32;;;;;;;13.75;70.75;97794.44;4973191;28;20102;-91
2022/09/24 07:43:13;;;;;;;8.25;6.90;;;;;;;14.05;69.64;97790.91;4972196;28;20134;-90
2022/09/24 07:45:44;;;;;;;8.13;6.53;;;;;;;14.29;68.11;97791.72;4973628;28;20085;-91
2022/09/24 07:48:11;;;;;;;7.68;6.72;;;;;;;14.40;67.77;97785.63;4945035;28;20057;-93
2022/09/24 07:50:43;;;;;;;7.53;6.82;;;;;;;14.38;65.03;97787.66;4974630;28;20070;-90
2022/09/24 07:53:11;;;;;;;7.88;7.07;;;;;;;14.57;67.76;97786.53;4970648;28;20050;-90
2022/09/24 07:55:39;;;;;;;8.07;6.93;;;;;;;14.78;65.69;97771.91;4969487;28;20047;-91
2022/09/24 07:58:12;;;;;;;7.83;7.03;;;;;;;14.84;61.74;97776.25;4973601;28;20047;-90
2022/09/24 08:00:39;;;;;;;;;;;;;;;14.93;64.37;97789.88;4974403;28;20047;-90
2022/09/24 08:03:08;;;;;;;8.57;6.88;;;;;;;15.11;62.67;97789.69;4953299;29;19926;-91
2022/09/24 08:05:35;;;;;;;6.90;6.20;;;;;;;15.02;62.80;97772.63;4940892;28;20050;-92
2022/09/24 08:08:02;;;;;;;7.57;6.65;;;;;;;15.08;64.65;97784.91;4973689;28;20097;-91
2022/09/24 08:10:29;;;;;;;8.98;7.35;;;;;;;15.26;62.62;97791.84;4972072;28;20039;-92
2022/09/24 08:13:01;;;;;;;7.57;6.82;;;;;;;15.10;63.28;97774.88;4973366;28;20068;-93
2022/09/24 08:15:28;;;;;;;7.70;6.90;;;;;;;15.09;62.98;97797.06;4955495;28;20047;-92
2022/09/24 08:18:03;;;;;;;9.20;6.35;;;;;;;14.87;62.65;97756.50;4970924;28;20046;-91
2022/09/24 08:20:32;;;;;;;8.75;7.50;;;;;;;14.68;60.44;97772.50;4969027;28;20051;-90
2022/09/24 08:23:04;;;;;;;9.35;7.40;;;;;;;14.71;62.30;97781.81;4968346;28;20847;-91
2022/09/24 08:25:33;;;;;;;7.90;7.13;;;;;;;15.05;62.38;97787.19;4973173;28;20051;-92
2022/09/24 08:28:03;;;;;;;7.63;6.55;;;;;;;15.26;63.69;97805.84;4965763;28;20035;-90
2022/09/24 08:30:30;;;;;;;8.17;6.77;;;;;;;15.55;62.50;97803.19;4967889;28;20062;-89
2022/09/24 08:32:57;;;;;;;8.18;7.05;;;;;;;15.53;60.30;97794.66;4966556;28;20057;-90
2022/09/24 08:35:24;;;;;;;7.10;6.38;;;;;;;15.58;62.09;97792.13;4972016;28;20046;-90
2022/09/24 08:37:54;;;;;;;9.77;6.60;;;;;;;15.81;61.61;97790.41;4966890;28;20634;-91
2022/09/24 08:40:30;;;;;;;8.05;6.55;;;;;;;15.86;60.76;97801.06;4968465;28;20137;-92
2022/09/24 08:43:27;;;;;;;9.23;7.68;;;;;;;15.70;59.42;97790.22;4972333;28;20498;-91
2022/09/24 08:49:06;;;;;;;8.10;7.25;;;;;;;15.98;58.91;97799.16;4965082;28;20163;-91
2022/09/24 08:51:56;;;;;;;8.40;7.18;;;;;;;15.95;59.69;97802.25;4968476;28;20039;-91
2022/09/24 08:54:29;;;;;;;7.80;7.00;;;;;;;15.81;61.19;97798.34;4967754;28;20643;-90
2022/09/24 08:56:58;;;;;;;11.25;7.20;;;;;;;15.75;59.03;97777.09;4969764;28;20048;-92
2022/09/24 08:59:38;;;;;;;8.45;6.95;;;;;;;15.88;58.67;97791.03;4967855;28;20129;-92
2022/09/24 09:02:35;;;;;;;10.18;7.13;;;;;;;16.00;60.99;97803.13;4967056;28;20042;-91
2022/09/24 09:05:38;;;;;;;10.30;7.45;;;;;;;15.99;59.22;97798.09;4965782;28;20047;-91
2022/09/24 09:08:22;;;;;;;8.95;7.40;;;;;;;15.99;63.59;97798.91;4965643;28;20066;-91
2022/09/24 09:11:15;;;;;;;8.90;7.50;;;;;;;15.87;60.87;97789.44;4959952;28;20073;-91
2022/09/24 09:13:56;;;;;;;8.60;7.28;;;;;;;15.99;60.56;97803.38;4971881;28;20161;-91
2022/09/24 09:16:48;;;;;;;9.27;7.70;;;;;;;16.03;59.55;97812.44;4963764;28;20105;-90
2022/09/24 09:19:23;;;;;;;10.90;8.40;;;;;;;15.85;61.72;97810.06;4964471;28;20046;-90
2022/09/24 09:22:14;;;;;;;10.02;8.20;;;;;;;15.81;61.66;97814.22;4974090;28;20090;-92
2022/09/24 09:24:48;;;;;;;12.18;9.10;;;;;;;15.85;60.69;97802.13;4972995;28;20475;-91
2022/09/24 09:27:17;;;;;;;9.52;8.60;;;;;;;15.93;61.15;97799.06;4975899;28;20121;-89
2022/09/24 09:29:54;;;;;;;10.88;8.55;;;;;;;15.88;60.85;97817.50;4976085;28;20046;-92
2022/09/24 09:32:48;;;;;;;11.50;8.70;;;;;;;16.00;61.80;97820.84;4975789;28;20446;-90
2022/09/24 09:35:30;;;;;;;10.02;8.90;;;;;;;16.11;61.22;97824.47;4975266;28;20046;-89
2022/09/24 09:38:26;;;;;;;12.32;9.25;;;;;;;16.21;62.04;97821.97;4980725;28;20042;-90
2022/09/24 09:41:05;;;;;;;9.57;8.57;;;;;;;16.19;60.69;97824.88;4976178;28;20697;-90
2022/09/24 09:43:32;;;;;;;12.20;9.73;;;;;;;16.04;61.30;97821.97;4978360;28;20031;-89
2022/09/24 09:46:24;;;;;;;10.45;9.18;;;;;;;16.17;60.80;97832.22;4976310;28;20435;-91
2022/09/24 09:49:01;;;;;;;12.50;10.13;;;;;;;16.08;60.40;97827.59;4975505;28;20042;-89
2022/09/24 09:51:37;;;;;;;11.77;9.60;;;;;;;15.95;59.41;97818.13;4977389;28;20042;-91
2022/09/24 09:54:04;;;;;;;10.48;9.05;;;;;;;16.18;61.86;97822.44;4976295;28;20043;-90
2022/09/24 09:56:48;;;;;;;13.00;9.75;;;;;;;16.46;60.16;97793.22;4976931;28;20058;-91
2022/09/24 09:59:25;;;;;;;10.88;9.73;;;;;;;16.90;58.48;97824.25;4975156;28;20066;-92
2022/09/24 10:01:56;;;;;;;12.73;9.05;;;;;;;17.06;59.44;97823.38;4975866;28;20395;-91
2022/09/24 10:04:27;;;;;;;11.70;9.05;;;;;;;17.07;58.82;97822.34;4974302;28;20051;-91
2022/09/24 10:07:16;;;;;;;11.00;9.85;;;;;;;16.82;57.60;97818.34;4959564;28;20145;-91
2022/09/24 10:09:45;;;;;;;11.68;8.82;;;;;;;16.74;60.29;97813.47;4975960;28;20129;-91
2022/09/24 10:12:25;;;;;;;9.73;8.73;;;;;;;16.92;59.91;97812.38;4956879;28;20043;-92
2022/09/24 10:15:00;;;;;;;11.05;9.07;;;;;;;17.07;59.03;97815.19;4975134;28;20152;-91
2022/09/24 10:17:36;;;;;;;10.75;9.63;;;;;;;17.30;60.50;97818.63;4972461;28;20057;-91
2022/09/24 10:20:21;;;;;;;10.98;9.10;;;;;;;17.28;57.49;97810.13;4974265;28;20498;-92
2022/09/24 10:23:00;;;;;;;12.20;9.57;;;;;;;17.28;58.48;97792.38;4969809;28;20067;-92
2022/09/24 10:25:31;;;;;;;10.48;8.77;;;;;;;17.06;57.57;97796.88;4977527;28;20515;-91
2022/09/24 10:31:01;;;;;;;12.13;10.43;;;;;;;17.23;55.58;97805.56;4976017;28;20149;-92
2022/09/24 10:33:39;;;;;;;12.73;9.75;;;;;;;17.34;58.13;97790.56;4975955;28;20047;-90
2022/09/24 10:36:27;;;;;;;15.40;10.95;;;;;;;17.58;58.43;97799.00;4975407;28;20082;-91
2022/09/24 10:39:07;;;;;;;13.77;10.20;;;;;;;17.74;58.50;97795.44;4974956;28;20043;-90
2022/09/24 10:41:34;;;;;;;11.50;10.00;;;;;;;17.77;56.65;97783.56;4972939;28;20093;-92
2022/09/24 10:44:10;;;;;;;12.50;10.23;;;;;;;17.87;58.35;97799.53;4969211;28;20047;-92
2022/09/24 10:46:53;;;;;;;11.77;9.55;;;;;;;17.57;56.79;97787.59;4968213;28;20126;-92
2022/09/24 10:50:11;;;;;;;12.00;9.38;;;;;;;17.50;58.14;97791.50;4968288;28;20047;-91
2022/09/24 10:53:04;;;;;;;13.40;11.13;;;;;;;17.41;55.75;97798.31;4953727;29;20077;-91
2022/09/24 10:55:51;;;;;;;11.75;9.80;;;;;;;17.56;57.34;97801.09;4971554;28;20058;-91
2022/09/24 10:58:40;;;;;;;13.38;10.40;;;;;;;17.53;56.31;97798.97;4974167;28;20113;-92
2022/09/24 11:01:18;;;;;;;13.07;9.98;;;;;;;17.28;56.87;97797.66;4969061;28;20122;-92
2022/09/24 11:04:17;;;;;;;12.82;11.48;;;;;;;17.15;56.79;97798.03;4972600;28;20558;-93
2022/09/24 11:07:16;;;;;;;18.27;9.38;;;;;;;17.37;58.82;97809.41;4972444;28;20677;-92
2022/09/24 11:10:27;;;;;;;12.85;9.85;;;;;;;17.61;59.33;97803.78;4955539;28;20078;-93
2022/09/24 11:13:16;;;;;;;9.90;8.90;;;;;;;17.65;57.06;97800.41;4953259;28;20475;-91
2022/09/24 11:16:22;;;;;;;11.63;9.20;;;;;;;17.44;58.85;97792.50;4956981;28;20082;-91
2022/09/24 11:19:20;;;;;;;12.68;9.35;;;;;;;17.73;58.05;97799.16;4968255;28;20051;-91
2022/09/24 11:22:09;;;;;;;12.50;8.25;;;;;;;17.61;59.65;97803.78;4972599;28;20053;-91
2022/09/24 11:25:20;;;;;;;8.77;7.88;;;;;;;17.57;56.61;97781.47;4974741;28;20133;-91
2022/09/24 11:28:29;;;;;;;11.63;7.07;;;;;;;17.86;57.69;97784.66;4970813;28;20126;-90
2022/09/24 11:31:47;;;;;;;8.38;7.32;;;;;;;17.77;57.06;97771.09;4970698;28;20575;-90
2022/09/24 11:34:26;;;;;;;10.25;7.05;;;;;;;17.86;53.50;97780.16;4924111;29;20044;-90
2022/09/24 11:37:28;;;;;;;7.85;6.55;;;;;;;17.93;56.73;97785.25;4934291;29;20061;-90
2022/09/24 11:40:36;;;;;;;8.63;7.18;;;;;;;17.92;57.17;97773.84;4950556;28;20051;-90
2022/09/24 11:43:22;;;;;;;7.88;6.78;;;;;;;17.95;57.38;97772.53;4970711;28;20046;-90
2022/09/24 11:46:23;;;;;;;9.52;7.97;;;;;;;17.98;56.17;97781.84;4969032;28;20414;-91
2022/09/24 11:49:35;;;;;;;9.68;7.75;;;;;;;17.91;57.82;97785.50;4969592;28;20097;-90
2022/09/24 11:52:12;;;;;;;9.32;6.80;;;;;;;17.64;55.32;97771.50;4969395;28;20118;-92
2022/09/24 11:55:13;;;;;;;8.00;7.05;;;;;;;17.62;53.59;97782.31;4968245;28;20089;-90
2022/09/24 11:58:17;;;;;;;11.50;6.93;;;;;;;17.59;54.73;97774.09;4962845;28;20144;-90
2022/09/24 12:00:58;;;;;;;8.02;6.55;;;;;;;17.64;53.99;97774.13;4953022;28;20709;-91
2022/09/24 12:03:51;;;;;;;7.63;6.90;;;;;;;17.73;53.11;97762.03;4962227;28;20463;-91
2022/09/24 12:06:35;;;;;;;7.05;6.30;;;;;;;17.88;53.34;97772.78;4964901;28;20051;-91
2022/09/24 12:09:40;;;;;;;7.65;6.68;;;;;;;18.02;53.87;97769.66;4963989;28;20061;-90
2022/09/24 12:12:21;;;;;;;9.85;7.53;;;;;;;18.09;52.47;97770.25;4914618;28;20067;-91
2022/09/24 12:15:04;;;;;;;8.57;7.47;;;;;;;18.42;52.91;97775.22;4948808;28;20437;-90
2022/09/24 12:17:38;;;;;;;11.50;8.15;;;;;;;18.56;52.22;97772.09;4964620;28;20039;-91
2022/09/24 12:20:27;;;;;;;10.20;7.13;;;;;;;18.42;52.96;97761.97;4962069;28;20042;-90
2022/09/24 12:23:11;;;;;;;8.90;6.88;;;;;;;18.52;52.99;97750.56;4950712;28;20077;-91
2022/09/24 12:25:46;;;;;;;7.93;7.13;;;;;;;18.70;50.39;97736.84;4963412;28;20162;-91